Wednesday, October 24, 2018, 3:19 AM GMT
Back to Local

CWQP, Point Petre , Ont.

Location: , , Canada Lat: 43.833
Local Time: 3:19 AM GMT ( 3:19 GMT) Lon: -77.15
Time Zone: GMT Elev: 259 ft

Show me the last for .
Show Coded

Time T Td Feel RH Dir Speed Gust Alt SLP Vis Weather Sky Remarks
2018-10-24 03:00 44 42 35 94 320° 15 21 - 30.02 0 Peak wind: 20 mph (18 kts) from 300° at 42 min
1-hr Precip Total: 0.02"
2018-10-24 02:00 45 42 38 87 300° 15 - - 30.01 0 Peak wind: 20 mph (18 kts) from 300° at 31 min
2018-10-24 01:00 44 42 36 93 320° 10 18 - 30.00 0 None
2018-10-24 00:00 45 42 41 90 330° 7 - - 29.99 0 None
2018-10-23 23:00 46 42 42 85 320° 8 - - 29.98 0 None
2018-10-23 22:00 47 42 41 81 310° 13 18 - 29.96 0 Peak wind: 19 mph (17 kts) from 300° at 28 min
2018-10-23 21:00 47 42 42 81 300° 12 - - 29.96 0 None
2018-10-23 20:00 48 44 43 84 290° 12 - - 29.94 0 None
2018-10-23 19:00 48 42 44 80 260° 8 - - 29.93 0 None
2018-10-23 18:00 46 44 42 95 250° 7 - - 29.92 0 1-hr Precip Total: 0.02"
2018-10-23 17:00 46 43 41 88 280° 10 - - 29.93 0 1-hr Precip Total: 0.07"
2018-10-23 16:00 50 43 - 76 160° 7 - - 29.93 0 None
2018-10-23 15:00 51 43 - 73 130° 6 - - 29.93 0 None
2018-10-23 14:00 51 43 - 73 120° 9 - - 29.94 0 None
2018-10-23 13:00 50 44 46 80 120° 8 - - 29.95 0 None
2018-10-23 12:00 49 45 46 84 140° 9 - - 29.95 0 None
2018-10-23 11:00 44 42 40 92 150° 7 - - 29.95 0 None
2018-10-23 10:00 42 40 37 91 190° 8 - - 29.96 0 None
2018-10-23 09:00 44 41 39 89 180° 8 - - 29.98 0 None
2018-10-23 08:00 45 42 41 86 180° 9 - - 29.98 0 None
2018-10-23 07:00 45 40 40 81 190° 10 - - 29.99 0 None
2018-10-23 06:00 49 41 44 73 180° 13 - - 30.00 0 None
2018-10-23 05:00 50 44 - 78 170° 13 - - 30.02 0 None
2018-10-23 04:00 49 44 45 84 190° 8 - - 30.03 0 None

Support USWX by starting your Amazon purchase here.